sensor_id;sensor_type;location;lat;lon;timestamp;P1;durP1;ratioP1;P2;durP2;ratioP2
55732;SDS011;41637;52.364;9.910;2022-08-19T00:01:55;9.60;;;6.50;;
55732;SDS011;41637;52.364;9.910;2022-08-19T00:04:26;8.80;;;6.10;;
55732;SDS011;41637;52.364;9.910;2022-08-19T00:06:56;11.20;;;6.50;;
55732;SDS011;41637;52.364;9.910;2022-08-19T00:09:24;8.40;;;6.60;;
55732;SDS011;41637;52.364;9.910;2022-08-19T00:11:52;10.70;;;6.50;;
55732;SDS011;41637;52.364;9.910;2022-08-19T00:14:21;8.20;;;6.30;;
55732;SDS011;41637;52.364;9.910;2022-08-19T00:16:50;11.50;;;7.10;;
55732;SDS011;41637;52.364;9.910;2022-08-19T00:19:20;8.40;;;6.20;;
55732;SDS011;41637;52.364;9.910;2022-08-19T00:21:49;11.90;;;6.60;;
55732;SDS011;41637;52.364;9.910;2022-08-19T00:24:17;10.40;;;6.40;;
55732;SDS011;41637;52.364;9.910;2022-08-19T00:26:45;12.40;;;7.10;;
55732;SDS011;41637;52.364;9.910;2022-08-19T00:29:13;9.20;;;6.70;;
55732;SDS011;41637;52.364;9.910;2022-08-19T00:31:41;8.40;;;6.60;;
55732;SDS011;41637;52.364;9.910;2022-08-19T00:34:09;9.70;;;6.80;;
55732;SDS011;41637;52.364;9.910;2022-08-19T00:36:38;9.50;;;6.50;;
55732;SDS011;41637;52.364;9.910;2022-08-19T00:39:06;10.60;;;6.60;;
55732;SDS011;41637;52.364;9.910;2022-08-19T00:41:33;9.80;;;6.90;;
55732;SDS011;41637;52.364;9.910;2022-08-19T00:44:08;10.90;;;7.10;;
55732;SDS011;41637;52.364;9.910;2022-08-19T00:46:38;8.70;;;6.70;;
55732;SDS011;41637;52.364;9.910;2022-08-19T00:49:15;9.40;;;6.70;;
55732;SDS011;41637;52.364;9.910;2022-08-19T00:51:43;9.90;;;7.50;;
55732;SDS011;41637;52.364;9.910;2022-08-19T00:54:13;8.50;;;7.00;;
55732;SDS011;41637;52.364;9.910;2022-08-19T00:56:41;9.10;;;6.60;;
55732;SDS011;41637;52.364;9.910;2022-08-19T00:59:08;10.80;;;6.90;;
55732;SDS011;41637;52.364;9.910;2022-08-19T01:01:36;8.80;;;6.70;;
55732;SDS011;41637;52.364;9.910;2022-08-19T01:04:06;10.90;;;7.00;;
55732;SDS011;41637;52.364;9.910;2022-08-19T01:06:34;10.40;;;7.30;;
55732;SDS011;41637;52.364;9.910;2022-08-19T01:09:03;9.30;;;7.10;;
55732;SDS011;41637;52.364;9.910;2022-08-19T01:11:31;12.20;;;7.10;;
55732;SDS011;41637;52.364;9.910;2022-08-19T01:14:01;10.70;;;7.60;;
55732;SDS011;41637;52.364;9.910;2022-08-19T01:16:32;12.40;;;7.30;;
55732;SDS011;41637;52.364;9.910;2022-08-19T01:19:00;11.10;;;7.40;;
55732;SDS011;41637;52.364;9.910;2022-08-19T01:21:34;11.00;;;7.30;;
55732;SDS011;41637;52.364;9.910;2022-08-19T01:24:07;9.10;;;6.70;;
55732;SDS011;41637;52.364;9.910;2022-08-19T01:26:38;11.00;;;7.60;;
55732;SDS011;41637;52.364;9.910;2022-08-19T01:29:09;8.50;;;6.70;;
55732;SDS011;41637;52.364;9.910;2022-08-19T01:31:36;10.90;;;6.90;;
55732;SDS011;41637;52.364;9.910;2022-08-19T01:34:06;10.50;;;7.00;;
55732;SDS011;41637;52.364;9.910;2022-08-19T01:36:36;10.50;;;7.40;;
55732;SDS011;41637;52.364;9.910;2022-08-19T01:39:07;10.50;;;7.70;;
55732;SDS011;41637;52.364;9.910;2022-08-19T01:41:37;10.80;;;7.70;;
55732;SDS011;41637;52.364;9.910;2022-08-19T01:44:05;10.60;;;7.40;;
55732;SDS011;41637;52.364;9.910;2022-08-19T01:46:44;9.60;;;7.80;;
55732;SDS011;41637;52.364;9.910;2022-08-19T01:49:13;10.80;;;8.10;;
55732;SDS011;41637;52.364;9.910;2022-08-19T01:51:41;12.00;;;8.00;;
55732;SDS011;41637;52.364;9.910;2022-08-19T01:54:08;11.70;;;7.90;;
55732;SDS011;41637;52.364;9.910;2022-08-19T01:56:36;11.70;;;8.00;;
55732;SDS011;41637;52.364;9.910;2022-08-19T01:59:05;9.10;;;7.20;;
55732;SDS011;41637;52.364;9.910;2022-08-19T02:01:39;8.60;;;7.20;;
55732;SDS011;41637;52.364;9.910;2022-08-19T02:04:07;10.10;;;7.50;;
55732;SDS011;41637;52.364;9.910;2022-08-19T02:06:34;9.80;;;7.50;;
55732;SDS011;41637;52.364;9.910;2022-08-19T02:09:04;10.90;;;7.40;;
55732;SDS011;41637;52.364;9.910;2022-08-19T02:11:40;10.90;;;7.70;;
55732;SDS011;41637;52.364;9.910;2022-08-19T02:14:07;10.60;;;7.70;;
55732;SDS011;41637;52.364;9.910;2022-08-19T02:16:35;10.60;;;8.30;;
55732;SDS011;41637;52.364;9.910;2022-08-19T02:19:03;9.40;;;7.70;;
55732;SDS011;41637;52.364;9.910;2022-08-19T02:21:30;9.30;;;7.40;;
55732;SDS011;41637;52.364;9.910;2022-08-19T02:23:57;9.30;;;7.30;;
55732;SDS011;41637;52.364;9.910;2022-08-19T02:26:36;11.90;;;8.00;;
55732;SDS011;41637;52.364;9.910;2022-08-19T02:29:04;8.90;;;7.30;;
55732;SDS011;41637;52.364;9.910;2022-08-19T02:31:41;12.20;;;8.20;;
55732;SDS011;41637;52.364;9.910;2022-08-19T02:34:08;10.50;;;8.20;;
55732;SDS011;41637;52.364;9.910;2022-08-19T02:39:02;11.20;;;8.30;;
55732;SDS011;41637;52.364;9.910;2022-08-19T02:41:30;10.30;;;8.00;;
55732;SDS011;41637;52.364;9.910;2022-08-19T02:44:00;10.20;;;7.60;;
55732;SDS011;41637;52.364;9.910;2022-08-19T02:46:50;11.20;;;8.60;;
55732;SDS011;41637;52.364;9.910;2022-08-19T02:49:18;12.50;;;8.10;;
55732;SDS011;41637;52.364;9.910;2022-08-19T02:51:45;11.40;;;8.60;;
55732;SDS011;41637;52.364;9.910;2022-08-19T02:54:13;11.90;;;8.40;;
55732;SDS011;41637;52.364;9.910;2022-08-19T02:56:41;11.30;;;8.70;;
55732;SDS011;41637;52.364;9.910;2022-08-19T02:59:09;9.90;;;8.10;;
55732;SDS011;41637;52.364;9.910;2022-08-19T03:01:37;14.50;;;9.60;;
55732;SDS011;41637;52.364;9.910;2022-08-19T03:04:09;12.20;;;8.60;;
55732;SDS011;41637;52.364;9.910;2022-08-19T03:06:39;10.80;;;8.50;;
55732;SDS011;41637;52.364;9.910;2022-08-19T03:09:09;12.20;;;8.30;;
55732;SDS011;41637;52.364;9.910;2022-08-19T03:11:37;10.00;;;8.20;;
55732;SDS011;41637;52.364;9.910;2022-08-19T03:14:04;11.60;;;8.50;;
55732;SDS011;41637;52.364;9.910;2022-08-19T03:16:40;11.40;;;8.20;;
55732;SDS011;41637;52.364;9.910;2022-08-19T03:19:10;10.30;;;7.80;;
55732;SDS011;41637;52.364;9.910;2022-08-19T03:21:38;12.10;;;8.40;;
55732;SDS011;41637;52.364;9.910;2022-08-19T03:24:07;11.30;;;8.20;;
55732;SDS011;41637;52.364;9.910;2022-08-19T03:26:42;11.00;;;8.00;;
55732;SDS011;41637;52.364;9.910;2022-08-19T03:29:14;13.00;;;8.70;;
55732;SDS011;41637;52.364;9.910;2022-08-19T03:31:56;10.40;;;7.80;;
55732;SDS011;41637;52.364;9.910;2022-08-19T03:34:25;9.90;;;8.00;;
55732;SDS011;41637;52.364;9.910;2022-08-19T03:36:55;11.40;;;7.90;;
55732;SDS011;41637;52.364;9.910;2022-08-19T03:39:24;11.10;;;8.00;;
55732;SDS011;41637;52.364;9.910;2022-08-19T03:41:52;10.50;;;7.00;;
55732;SDS011;41637;52.364;9.910;2022-08-19T03:44:43;13.20;;;7.90;;
55732;SDS011;41637;52.364;9.910;2022-08-19T03:47:11;10.40;;;7.70;;
55732;SDS011;41637;52.364;9.910;2022-08-19T03:49:42;10.90;;;7.50;;
55732;SDS011;41637;52.364;9.910;2022-08-19T03:52:10;11.30;;;7.40;;
55732;SDS011;41637;52.364;9.910;2022-08-19T03:54:37;10.00;;;7.70;;
55732;SDS011;41637;52.364;9.910;2022-08-19T03:57:05;12.30;;;7.30;;
55732;SDS011;41637;52.364;9.910;2022-08-19T03:59:35;9.90;;;7.30;;
55732;SDS011;41637;52.364;9.910;2022-08-19T04:02:19;11.20;;;7.50;;
55732;SDS011;41637;52.364;9.910;2022-08-19T04:04:46;10.10;;;7.70;;
55732;SDS011;41637;52.364;9.910;2022-08-19T04:07:14;11.10;;;8.00;;
55732;SDS011;41637;52.364;9.910;2022-08-19T04:09:42;10.50;;;7.10;;
55732;SDS011;41637;52.364;9.910;2022-08-19T04:12:09;8.40;;;6.80;;
55732;SDS011;41637;52.364;9.910;2022-08-19T04:14:36;10.30;;;7.20;;
55732;SDS011;41637;52.364;9.910;2022-08-19T04:17:03;12.70;;;7.50;;
55732;SDS011;41637;52.364;9.910;2022-08-19T04:19:31;9.60;;;6.90;;
55732;SDS011;41637;52.364;9.910;2022-08-19T04:22:12;9.40;;;6.80;;
55732;SDS011;41637;52.364;9.910;2022-08-19T04:24:39;10.50;;;6.70;;
55732;SDS011;41637;52.364;9.910;2022-08-19T04:27:06;9.60;;;6.30;;
55732;SDS011;41637;52.364;9.910;2022-08-19T04:29:33;9.70;;;6.40;;
55732;SDS011;41637;52.364;9.910;2022-08-19T04:32:00;9.80;;;6.80;;
55732;SDS011;41637;52.364;9.910;2022-08-19T04:34:34;7.60;;;6.10;;
55732;SDS011;41637;52.364;9.910;2022-08-19T04:37:23;10.50;;;6.30;;
55732;SDS011;41637;52.364;9.910;2022-08-19T04:39:54;9.90;;;6.40;;
55732;SDS011;41637;52.364;9.910;2022-08-19T04:42:57;10.50;;;6.40;;
55732;SDS011;41637;52.364;9.910;2022-08-19T04:45:25;13.10;;;6.90;;
55732;SDS011;41637;52.364;9.910;2022-08-19T04:47:54;10.50;;;6.20;;
55732;SDS011;41637;52.364;9.910;2022-08-19T04:50:43;11.60;;;6.30;;
55732;SDS011;41637;52.364;9.910;2022-08-19T04:53:10;8.80;;;6.40;;
55732;SDS011;41637;52.364;9.910;2022-08-19T04:55:38;13.80;;;8.10;;
55732;SDS011;41637;52.364;9.910;2022-08-19T04:58:07;14.40;;;8.80;;
55732;SDS011;41637;52.364;9.910;2022-08-19T05:00:36;13.20;;;6.90;;
55732;SDS011;41637;52.364;9.910;2022-08-19T05:03:04;11.60;;;6.70;;
55732;SDS011;41637;52.364;9.910;2022-08-19T05:05:33;11.70;;;7.00;;
55732;SDS011;41637;52.364;9.910;2022-08-19T05:08:14;11.00;;;6.50;;
55732;SDS011;41637;52.364;9.910;2022-08-19T05:10:56;15.40;;;6.30;;
55732;SDS011;41637;52.364;9.910;2022-08-19T05:13:24;8.90;;;5.90;;
55732;SDS011;41637;52.364;9.910;2022-08-19T05:15:54;10.30;;;5.70;;
55732;SDS011;41637;52.364;9.910;2022-08-19T05:18:25;10.10;;;5.60;;
55732;SDS011;41637;52.364;9.910;2022-08-19T05:21:12;12.30;;;5.70;;
55732;SDS011;41637;52.364;9.910;2022-08-19T05:24:10;11.00;;;5.70;;
55732;SDS011;41637;52.364;9.910;2022-08-19T05:26:41;11.40;;;5.30;;
55732;SDS011;41637;52.364;9.910;2022-08-19T05:29:13;12.60;;;5.40;;
55732;SDS011;41637;52.364;9.910;2022-08-19T05:31:41;8.80;;;5.40;;
55732;SDS011;41637;52.364;9.910;2022-08-19T05:34:09;8.70;;;5.40;;
55732;SDS011;41637;52.364;9.910;2022-08-19T05:36:45;10.10;;;5.90;;
55732;SDS011;41637;52.364;9.910;2022-08-19T05:39:13;11.40;;;6.20;;
55732;SDS011;41637;52.364;9.910;2022-08-19T05:41:42;18.90;;;7.20;;
55732;SDS011;41637;52.364;9.910;2022-08-19T05:44:10;12.70;;;7.10;;
55732;SDS011;41637;52.364;9.910;2022-08-19T05:46:38;11.00;;;7.10;;
55732;SDS011;41637;52.364;9.910;2022-08-19T05:49:06;12.30;;;6.70;;
55732;SDS011;41637;52.364;9.910;2022-08-19T05:51:34;15.60;;;7.50;;
55732;SDS011;41637;52.364;9.910;2022-08-19T05:54:04;19.80;;;9.00;;
55732;SDS011;41637;52.364;9.910;2022-08-19T05:56:32;19.70;;;8.70;;
55732;SDS011;41637;52.364;9.910;2022-08-19T05:59:02;19.70;;;8.30;;
55732;SDS011;41637;52.364;9.910;2022-08-19T06:01:35;36.70;;;28.80;;
55732;SDS011;41637;52.364;9.910;2022-08-19T06:04:04;30.40;;;22.00;;
55732;SDS011;41637;52.364;9.910;2022-08-19T06:06:31;19.00;;;7.90;;
55732;SDS011;41637;52.364;9.910;2022-08-19T06:09:03;18.00;;;9.80;;
55732;SDS011;41637;52.364;9.910;2022-08-19T06:11:36;14.10;;;7.00;;
55732;SDS011;41637;52.364;9.910;2022-08-19T06:14:13;10.60;;;6.10;;
55732;SDS011;41637;52.364;9.910;2022-08-19T06:16:53;27.80;;;23.30;;
55732;SDS011;41637;52.364;9.910;2022-08-19T06:19:20;10.10;;;6.30;;
55732;SDS011;41637;52.364;9.910;2022-08-19T06:21:50;22.50;;;17.70;;
55732;SDS011;41637;52.364;9.910;2022-08-19T06:24:19;8.90;;;6.30;;
55732;SDS011;41637;52.364;9.910;2022-08-19T06:26:52;6.20;;;4.60;;
55732;SDS011;41637;52.364;9.910;2022-08-19T06:29:27;13.60;;;6.00;;
55732;SDS011;41637;52.364;9.910;2022-08-19T06:31:56;12.90;;;5.80;;
55732;SDS011;41637;52.364;9.910;2022-08-19T06:34:26;12.50;;;6.40;;
55732;SDS011;41637;52.364;9.910;2022-08-19T06:36:54;8.10;;;5.20;;
55732;SDS011;41637;52.364;9.910;2022-08-19T06:39:23;7.60;;;5.10;;
55732;SDS011;41637;52.364;9.910;2022-08-19T06:41:53;9.90;;;5.10;;
55732;SDS011;41637;52.364;9.910;2022-08-19T06:44:25;9.60;;;5.20;;
55732;SDS011;41637;52.364;9.910;2022-08-19T06:46:57;10.30;;;5.00;;
55732;SDS011;41637;52.364;9.910;2022-08-19T06:49:25;12.60;;;6.90;;
55732;SDS011;41637;52.364;9.910;2022-08-19T06:51:58;14.80;;;6.40;;
55732;SDS011;41637;52.364;9.910;2022-08-19T06:54:27;12.40;;;6.30;;
55732;SDS011;41637;52.364;9.910;2022-08-19T06:56:59;9.60;;;5.50;;
55732;SDS011;41637;52.364;9.910;2022-08-19T06:59:31;8.50;;;5.20;;
55732;SDS011;41637;52.364;9.910;2022-08-19T07:02:02;8.00;;;5.30;;
55732;SDS011;41637;52.364;9.910;2022-08-19T07:04:32;7.30;;;4.80;;
55732;SDS011;41637;52.364;9.910;2022-08-19T07:09:47;7.90;;;5.50;;
55732;SDS011;41637;52.364;9.910;2022-08-19T07:12:23;8.90;;;5.50;;
55732;SDS011;41637;52.364;9.910;2022-08-19T07:14:51;8.80;;;5.90;;
55732;SDS011;41637;52.364;9.910;2022-08-19T07:17:19;7.20;;;5.20;;
55732;SDS011;41637;52.364;9.910;2022-08-19T07:19:46;7.40;;;5.30;;
55732;SDS011;41637;52.364;9.910;2022-08-19T07:22:14;7.90;;;5.30;;
55732;SDS011;41637;52.364;9.910;2022-08-19T07:24:42;8.20;;;5.30;;
55732;SDS011;41637;52.364;9.910;2022-08-19T07:27:16;6.40;;;5.20;;
55732;SDS011;41637;52.364;9.910;2022-08-19T07:29:51;6.70;;;5.10;;
55732;SDS011;41637;52.364;9.910;2022-08-19T07:32:24;7.20;;;5.30;;
55732;SDS011;41637;52.364;9.910;2022-08-19T07:34:53;8.80;;;5.90;;
55732;SDS011;41637;52.364;9.910;2022-08-19T07:37:25;7.90;;;5.50;;
55732;SDS011;41637;52.364;9.910;2022-08-19T07:39:58;6.40;;;4.90;;
55732;SDS011;41637;52.364;9.910;2022-08-19T07:42:26;9.10;;;5.40;;
55732;SDS011;41637;52.364;9.910;2022-08-19T07:44:55;7.40;;;4.90;;
55732;SDS011;41637;52.364;9.910;2022-08-19T07:47:23;10.50;;;4.90;;
55732;SDS011;41637;52.364;9.910;2022-08-19T07:50:10;6.60;;;5.00;;
55732;SDS011;41637;52.364;9.910;2022-08-19T07:52:37;9.60;;;5.40;;
55732;SDS011;41637;52.364;9.910;2022-08-19T07:55:06;6.90;;;5.10;;
55732;SDS011;41637;52.364;9.910;2022-08-19T07:57:54;8.60;;;4.80;;
55732;SDS011;41637;52.364;9.910;2022-08-19T08:00:21;8.70;;;4.80;;
55732;SDS011;41637;52.364;9.910;2022-08-19T08:02:50;6.80;;;5.50;;
55732;SDS011;41637;52.364;9.910;2022-08-19T08:05:20;8.70;;;5.80;;
55732;SDS011;41637;52.364;9.910;2022-08-19T08:08:09;8.20;;;5.50;;
55732;SDS011;41637;52.364;9.910;2022-08-19T08:10:55;8.80;;;6.10;;
55732;SDS011;41637;52.364;9.910;2022-08-19T08:13:23;7.70;;;6.60;;
55732;SDS011;41637;52.364;9.910;2022-08-19T08:15:51;8.60;;;6.50;;
55732;SDS011;41637;52.364;9.910;2022-08-19T08:18:22;7.80;;;5.90;;
55732;SDS011;41637;52.364;9.910;2022-08-19T08:20:52;8.00;;;6.20;;
55732;SDS011;41637;52.364;9.910;2022-08-19T08:23:20;7.60;;;4.90;;
55732;SDS011;41637;52.364;9.910;2022-08-19T08:25:53;5.90;;;5.00;;
55732;SDS011;41637;52.364;9.910;2022-08-19T08:28:23;8.60;;;5.70;;
55732;SDS011;41637;52.364;9.910;2022-08-19T08:30:51;8.60;;;5.60;;
55732;SDS011;41637;52.364;9.910;2022-08-19T08:33:22;9.60;;;5.50;;
55732;SDS011;41637;52.364;9.910;2022-08-19T08:36:06;6.90;;;5.90;;
55732;SDS011;41637;52.364;9.910;2022-08-19T08:38:35;6.90;;;5.40;;
55732;SDS011;41637;52.364;9.910;2022-08-19T08:41:23;6.90;;;5.70;;
55732;SDS011;41637;52.364;9.910;2022-08-19T08:44:15;8.30;;;6.00;;
55732;SDS011;41637;52.364;9.910;2022-08-19T08:47:01;8.10;;;6.20;;
55732;SDS011;41637;52.364;9.910;2022-08-19T08:52:04;6.80;;;5.50;;
55732;SDS011;41637;52.364;9.910;2022-08-19T08:54:37;6.10;;;4.90;;
55732;SDS011;41637;52.364;9.910;2022-08-19T09:00:12;6.20;;;4.60;;
55732;SDS011;41637;52.364;9.910;2022-08-19T09:02:44;8.60;;;5.00;;
55732;SDS011;41637;52.364;9.910;2022-08-19T09:05:16;8.30;;;5.00;;
55732;SDS011;41637;52.364;9.910;2022-08-19T09:10:29;5.90;;;5.30;;
55732;SDS011;41637;52.364;9.910;2022-08-19T09:16:21;8.40;;;5.10;;
55732;SDS011;41637;52.364;9.910;2022-08-19T09:18:57;7.70;;;5.20;;
55732;SDS011;41637;52.364;9.910;2022-08-19T09:21:31;7.10;;;5.10;;
55732;SDS011;41637;52.364;9.910;2022-08-19T09:23:59;7.20;;;5.30;;
55732;SDS011;41637;52.364;9.910;2022-08-19T09:26:29;7.00;;;4.20;;
55732;SDS011;41637;52.364;9.910;2022-08-19T09:29:17;4.90;;;3.70;;
55732;SDS011;41637;52.364;9.910;2022-08-19T09:31:48;7.30;;;4.30;;
55732;SDS011;41637;52.364;9.910;2022-08-19T09:34:16;7.80;;;5.90;;
55732;SDS011;41637;52.364;9.910;2022-08-19T09:36:47;5.70;;;4.70;;
55732;SDS011;41637;52.364;9.910;2022-08-19T09:39:16;5.20;;;3.90;;
55732;SDS011;41637;52.364;9.910;2022-08-19T09:41:43;5.10;;;3.80;;
55732;SDS011;41637;52.364;9.910;2022-08-19T09:44:14;6.80;;;4.30;;
55732;SDS011;41637;52.364;9.910;2022-08-19T09:46:43;7.20;;;5.10;;
55732;SDS011;41637;52.364;9.910;2022-08-19T09:49:12;6.60;;;4.70;;
55732;SDS011;41637;52.364;9.910;2022-08-19T09:51:43;8.70;;;5.50;;
55732;SDS011;41637;52.364;9.910;2022-08-19T09:54:16;6.10;;;5.30;;
55732;SDS011;41637;52.364;9.910;2022-08-19T09:56:50;6.90;;;5.30;;
55732;SDS011;41637;52.364;9.910;2022-08-19T09:59:17;7.50;;;5.80;;
55732;SDS011;41637;52.364;9.910;2022-08-19T10:01:44;7.00;;;5.10;;
55732;SDS011;41637;52.364;9.910;2022-08-19T10:04:12;5.60;;;4.70;;
55732;SDS011;41637;52.364;9.910;2022-08-19T10:06:45;7.30;;;5.40;;
55732;SDS011;41637;52.364;9.910;2022-08-19T10:09:19;6.20;;;4.50;;
55732;SDS011;41637;52.364;9.910;2022-08-19T10:11:59;6.30;;;5.10;;
55732;SDS011;41637;52.364;9.910;2022-08-19T10:14:27;7.60;;;5.80;;
55732;SDS011;41637;52.364;9.910;2022-08-19T10:16:54;6.10;;;5.20;;
55732;SDS011;41637;52.364;9.910;2022-08-19T10:19:24;5.40;;;4.70;;
55732;SDS011;41637;52.364;9.910;2022-08-19T10:21:52;5.10;;;4.50;;
55732;SDS011;41637;52.364;9.910;2022-08-19T10:24:25;5.60;;;4.40;;
55732;SDS011;41637;52.364;9.910;2022-08-19T10:26:54;5.60;;;4.40;;
55732;SDS011;41637;52.364;9.910;2022-08-19T10:29:24;6.80;;;4.90;;
55732;SDS011;41637;52.364;9.910;2022-08-19T10:31:58;6.30;;;5.60;;
55732;SDS011;41637;52.364;9.910;2022-08-19T10:34:28;5.40;;;4.20;;
55732;SDS011;41637;52.364;9.910;2022-08-19T10:36:57;6.40;;;4.80;;
55732;SDS011;41637;52.364;9.910;2022-08-19T10:39:27;5.10;;;4.20;;
55732;SDS011;41637;52.364;9.910;2022-08-19T10:42:08;8.00;;;4.30;;
55732;SDS011;41637;52.364;9.910;2022-08-19T10:44:41;9.50;;;3.90;;
55732;SDS011;41637;52.364;9.910;2022-08-19T10:47:08;5.10;;;3.70;;
55732;SDS011;41637;52.364;9.910;2022-08-19T10:49:49;5.00;;;4.20;;
55732;SDS011;41637;52.364;9.910;2022-08-19T10:52:38;6.30;;;4.50;;
55732;SDS011;41637;52.364;9.910;2022-08-19T10:55:16;5.90;;;4.70;;
55732;SDS011;41637;52.364;9.910;2022-08-19T10:58:03;6.10;;;4.30;;
55732;SDS011;41637;52.364;9.910;2022-08-19T11:00:31;7.10;;;4.70;;
55732;SDS011;41637;52.364;9.910;2022-08-19T11:02:58;6.10;;;4.60;;
55732;SDS011;41637;52.364;9.910;2022-08-19T11:05:25;4.30;;;3.70;;
55732;SDS011;41637;52.364;9.910;2022-08-19T11:07:52;6.20;;;4.20;;
55732;SDS011;41637;52.364;9.910;2022-08-19T11:10:19;6.00;;;4.30;;
55732;SDS011;41637;52.364;9.910;2022-08-19T11:12:47;6.00;;;3.90;;
55732;SDS011;41637;52.364;9.910;2022-08-19T11:15:14;5.00;;;4.00;;
55732;SDS011;41637;52.364;9.910;2022-08-19T11:17:42;8.00;;;3.80;;
55732;SDS011;41637;52.364;9.910;2022-08-19T11:20:13;7.30;;;4.60;;
55732;SDS011;41637;52.364;9.910;2022-08-19T11:22:41;6.70;;;4.00;;
55732;SDS011;41637;52.364;9.910;2022-08-19T11:25:09;5.40;;;3.50;;
55732;SDS011;41637;52.364;9.910;2022-08-19T11:27:40;5.00;;;3.70;;
55732;SDS011;41637;52.364;9.910;2022-08-19T11:30:11;5.00;;;3.80;;
55732;SDS011;41637;52.364;9.910;2022-08-19T11:32:39;8.40;;;4.40;;
55732;SDS011;41637;52.364;9.910;2022-08-19T11:35:14;4.80;;;3.70;;
55732;SDS011;41637;52.364;9.910;2022-08-19T11:37:42;5.80;;;4.20;;
55732;SDS011;41637;52.364;9.910;2022-08-19T11:40:11;7.30;;;4.40;;
55732;SDS011;41637;52.364;9.910;2022-08-19T11:42:38;7.10;;;4.00;;
55732;SDS011;41637;52.364;9.910;2022-08-19T11:45:22;5.70;;;3.60;;
55732;SDS011;41637;52.364;9.910;2022-08-19T11:47:52;5.20;;;3.90;;
55732;SDS011;41637;52.364;9.910;2022-08-19T11:50:19;4.10;;;3.30;;
55732;SDS011;41637;52.364;9.910;2022-08-19T11:52:47;5.10;;;3.20;;
55732;SDS011;41637;52.364;9.910;2022-08-19T11:55:18;6.50;;;3.10;;
55732;SDS011;41637;52.364;9.910;2022-08-19T11:57:45;4.40;;;2.60;;
55732;SDS011;41637;52.364;9.910;2022-08-19T12:00:13;4.80;;;3.00;;
55732;SDS011;41637;52.364;9.910;2022-08-19T12:02:41;5.10;;;3.30;;
55732;SDS011;41637;52.364;9.910;2022-08-19T12:05:08;3.60;;;2.70;;
55732;SDS011;41637;52.364;9.910;2022-08-19T12:07:38;4.00;;;3.00;;
55732;SDS011;41637;52.364;9.910;2022-08-19T12:10:07;3.80;;;2.80;;
55732;SDS011;41637;52.364;9.910;2022-08-19T12:12:35;4.40;;;2.90;;
55732;SDS011;41637;52.364;9.910;2022-08-19T12:15:09;3.50;;;2.60;;
55732;SDS011;41637;52.364;9.910;2022-08-19T12:17:37;5.10;;;2.60;;
55732;SDS011;41637;52.364;9.910;2022-08-19T12:20:04;3.60;;;2.50;;
55732;SDS011;41637;52.364;9.910;2022-08-19T12:22:33;2.80;;;2.10;;
55732;SDS011;41637;52.364;9.910;2022-08-19T12:25:01;3.00;;;2.00;;
55732;SDS011;41637;52.364;9.910;2022-08-19T12:27:28;2.40;;;1.90;;
55732;SDS011;41637;52.364;9.910;2022-08-19T12:30:06;3.80;;;2.40;;
55732;SDS011;41637;52.364;9.910;2022-08-19T12:32:35;3.20;;;2.20;;
55732;SDS011;41637;52.364;9.910;2022-08-19T12:35:02;3.30;;;2.10;;
55732;SDS011;41637;52.364;9.910;2022-08-19T12:37:31;3.90;;;2.00;;
55732;SDS011;41637;52.364;9.910;2022-08-19T12:39:58;3.10;;;2.00;;
55732;SDS011;41637;52.364;9.910;2022-08-19T12:42:25;1.90;;;1.40;;
55732;SDS011;41637;52.364;9.910;2022-08-19T12:44:53;3.60;;;1.90;;
55732;SDS011;41637;52.364;9.910;2022-08-19T12:47:20;3.00;;;1.40;;
55732;SDS011;41637;52.364;9.910;2022-08-19T12:49:47;3.10;;;1.60;;
55732;SDS011;41637;52.364;9.910;2022-08-19T12:52:21;2.90;;;1.20;;
55732;SDS011;41637;52.364;9.910;2022-08-19T12:54:50;1.90;;;1.30;;
55732;SDS011;41637;52.364;9.910;2022-08-19T12:57:20;2.50;;;1.30;;
55732;SDS011;41637;52.364;9.910;2022-08-19T13:00:03;2.60;;;1.30;;
55732;SDS011;41637;52.364;9.910;2022-08-19T13:02:33;3.90;;;1.30;;
55732;SDS011;41637;52.364;9.910;2022-08-19T13:05:05;2.70;;;1.30;;
55732;SDS011;41637;52.364;9.910;2022-08-19T13:07:34;3.30;;;1.40;;
55732;SDS011;41637;52.364;9.910;2022-08-19T13:10:03;1.80;;;1.20;;
55732;SDS011;41637;52.364;9.910;2022-08-19T13:12:31;2.40;;;1.30;;
55732;SDS011;41637;52.364;9.910;2022-08-19T13:14:59;3.50;;;1.40;;
55732;SDS011;41637;52.364;9.910;2022-08-19T13:17:26;3.10;;;1.20;;
55732;SDS011;41637;52.364;9.910;2022-08-19T13:19:56;2.20;;;1.20;;
55732;SDS011;41637;52.364;9.910;2022-08-19T13:22:26;1.90;;;1.20;;
55732;SDS011;41637;52.364;9.910;2022-08-19T13:24:54;3.60;;;1.40;;
55732;SDS011;41637;52.364;9.910;2022-08-19T13:27:20;2.20;;;1.20;;
55732;SDS011;41637;52.364;9.910;2022-08-19T13:29:48;4.10;;;1.20;;
55732;SDS011;41637;52.364;9.910;2022-08-19T13:32:33;2.40;;;1.30;;
55732;SDS011;41637;52.364;9.910;2022-08-19T13:35:19;2.60;;;1.20;;
55732;SDS011;41637;52.364;9.910;2022-08-19T13:37:46;2.00;;;1.10;;
55732;SDS011;41637;52.364;9.910;2022-08-19T13:40:20;3.60;;;1.30;;
55732;SDS011;41637;52.364;9.910;2022-08-19T13:42:51;3.10;;;1.10;;
55732;SDS011;41637;52.364;9.910;2022-08-19T13:45:20;2.80;;;1.00;;
55732;SDS011;41637;52.364;9.910;2022-08-19T13:47:49;2.80;;;1.10;;
55732;SDS011;41637;52.364;9.910;2022-08-19T13:50:25;2.50;;;1.10;;
55732;SDS011;41637;52.364;9.910;2022-08-19T13:52:54;2.30;;;1.10;;
55732;SDS011;41637;52.364;9.910;2022-08-19T13:55:24;1.90;;;1.00;;
55732;SDS011;41637;52.364;9.910;2022-08-19T13:57:53;1.60;;;1.10;;
55732;SDS011;41637;52.364;9.910;2022-08-19T14:00:26;2.00;;;1.10;;
55732;SDS011;41637;52.364;9.910;2022-08-19T14:02:55;2.50;;;1.10;;
55732;SDS011;41637;52.364;9.910;2022-08-19T14:05:24;2.00;;;1.00;;
55732;SDS011;41637;52.364;9.910;2022-08-19T14:07:52;4.60;;;1.10;;
55732;SDS011;41637;52.364;9.910;2022-08-19T14:10:23;3.30;;;0.90;;
55732;SDS011;41637;52.364;9.910;2022-08-19T14:12:54;1.70;;;1.00;;
55732;SDS011;41637;52.364;9.910;2022-08-19T14:15:24;1.40;;;0.90;;
55732;SDS011;41637;52.364;9.910;2022-08-19T14:17:52;1.90;;;0.90;;
55732;SDS011;41637;52.364;9.910;2022-08-19T14:20:20;1.50;;;0.70;;
55732;SDS011;41637;52.364;9.910;2022-08-19T14:22:51;2.10;;;0.80;;
55732;SDS011;41637;52.364;9.910;2022-08-19T14:25:20;2.40;;;1.00;;
55732;SDS011;41637;52.364;9.910;2022-08-19T14:27:49;2.30;;;1.00;;
55732;SDS011;41637;52.364;9.910;2022-08-19T14:30:18;1.40;;;0.90;;
55732;SDS011;41637;52.364;9.910;2022-08-19T14:32:51;2.90;;;1.00;;
55732;SDS011;41637;52.364;9.910;2022-08-19T14:35:19;1.40;;;0.80;;
55732;SDS011;41637;52.364;9.910;2022-08-19T14:37:48;2.50;;;0.80;;
55732;SDS011;41637;52.364;9.910;2022-08-19T14:40:16;3.00;;;0.80;;
55732;SDS011;41637;52.364;9.910;2022-08-19T14:42:47;1.90;;;0.90;;
55732;SDS011;41637;52.364;9.910;2022-08-19T14:45:14;1.20;;;0.70;;
55732;SDS011;41637;52.364;9.910;2022-08-19T14:47:41;1.30;;;0.90;;
55732;SDS011;41637;52.364;9.910;2022-08-19T14:50:11;2.10;;;0.80;;
55732;SDS011;41637;52.364;9.910;2022-08-19T14:52:44;3.10;;;0.90;;
55732;SDS011;41637;52.364;9.910;2022-08-19T14:55:14;2.80;;;0.90;;
55732;SDS011;41637;52.364;9.910;2022-08-19T14:57:42;1.30;;;0.70;;
55732;SDS011;41637;52.364;9.910;2022-08-19T15:00:09;2.80;;;0.70;;
55732;SDS011;41637;52.364;9.910;2022-08-19T15:02:40;3.30;;;0.90;;
55732;SDS011;41637;52.364;9.910;2022-08-19T15:05:08;2.40;;;0.90;;
55732;SDS011;41637;52.364;9.910;2022-08-19T15:07:39;1.80;;;0.70;;
55732;SDS011;41637;52.364;9.910;2022-08-19T15:10:07;4.60;;;0.90;;
55732;SDS011;41637;52.364;9.910;2022-08-19T15:12:37;1.30;;;0.70;;
55732;SDS011;41637;52.364;9.910;2022-08-19T15:15:10;1.70;;;0.60;;
55732;SDS011;41637;52.364;9.910;2022-08-19T15:17:40;1.00;;;0.60;;
55732;SDS011;41637;52.364;9.910;2022-08-19T15:20:18;3.10;;;0.70;;
55732;SDS011;41637;52.364;9.910;2022-08-19T15:22:47;1.10;;;0.60;;